Time;durP1;ratioP1;P1;durP2;ratioP2;P2;SDS_P1;SDS_P2;PMS_P1;PMS_P2;Temp;Humidity;BMP_temperature;BMP_pressure;BME280_temperature;BME280_humidity;BME280_pressure;Samples;Min_cycle;Max_cycle;Signal;HPM_P1;HPM_P2
2022/12/13 00:01:17;;;;;;;17.30;9.73;;;-4.00;99.90;;;;;;5075121;28;20198;-75
2022/12/13 00:03:43;;;;;;;17.53;8.97;;;-4.00;99.90;;;;;;5073674;28;20687;-76
2022/12/13 00:06:10;;;;;;;19.63;9.80;;;-4.00;99.90;;;;;;5074948;28;20675;-76
2022/12/13 00:08:36;;;;;;;22.20;10.43;;;-4.00;99.90;;;;;;5074937;28;20588;-75
2022/12/13 00:11:05;;;;;;;20.17;9.83;;;-4.00;99.90;;;;;;5074818;28;20720;-76
2022/12/13 00:13:31;;;;;;;19.47;10.90;;;-4.10;99.90;;;;;;5074800;28;20191;-76
2022/12/13 00:16:02;;;;;;;19.73;10.70;;;-4.10;99.90;;;;;;5074774;28;20199;-76
2022/12/13 00:18:28;;;;;;;18.70;9.87;;;-4.10;99.90;;;;;;5074847;28;20175;-76
2022/12/13 00:20:53;;;;;;;20.03;10.23;;;-4.10;99.90;;;;;;5073030;28;20174;-76
2022/12/13 00:23:19;;;;;;;16.53;8.93;;;-4.10;99.90;;;;;;5074603;28;20195;-76
2022/12/13 00:25:46;;;;;;;20.50;10.10;;;-4.20;99.90;;;;;;5073208;28;20248;-76
2022/12/13 00:28:12;;;;;;;16.93;9.43;;;-4.20;99.90;;;;;;5073317;28;20174;-75
2022/12/13 00:30:39;;;;;;;18.70;10.70;;;-4.20;99.90;;;;;;5074548;28;20186;-76
2022/12/13 00:33:05;;;;;;;17.70;9.73;;;-4.20;99.90;;;;;;5074402;28;20167;-76
2022/12/13 00:35:31;;;;;;;17.67;9.37;;;-4.30;99.90;;;;;;5074254;28;20192;-76
2022/12/13 00:37:56;;;;;;;17.23;9.40;;;-4.30;99.90;;;;;;5074384;28;20185;-75
2022/12/13 00:40:22;;;;;;;16.63;9.23;;;-4.30;99.90;;;;;;5073877;28;20172;-76
2022/12/13 00:42:48;;;;;;;15.07;8.87;;;-4.40;99.90;;;;;;5074516;28;20229;-76
2022/12/13 00:45:14;;;;;;;16.47;8.63;;;-4.40;99.90;;;;;;5074747;28;20622;-76
2022/12/13 00:47:39;;;;;;;19.70;8.97;;;-4.40;99.90;;;;;;5073827;28;20171;-77
2022/12/13 00:50:05;;;;;;;18.67;9.20;;;-4.40;99.90;;;;;;5075184;28;20678;-77
2022/12/13 00:52:33;;;;;;;19.57;9.40;;;-4.40;99.90;;;;;;5073559;28;20663;-76
2022/12/13 00:54:58;;;;;;;18.37;9.17;;;-4.40;99.90;;;;;;5074292;28;20267;-76
2022/12/13 00:57:24;;;;;;;16.00;8.67;;;-4.50;99.90;;;;;;5075046;28;20179;-77
2022/12/13 00:59:49;;;;;;;19.23;10.43;;;-4.50;99.90;;;;;;5075010;28;20245;-77
2022/12/13 01:02:15;;;;;;;17.27;8.70;;;-4.50;99.90;;;;;;5075064;28;20175;-77
2022/12/13 01:04:41;;;;;;;18.63;9.27;;;-4.60;99.90;;;;;;5073317;28;20270;-77
2022/12/13 01:07:07;;;;;;;13.50;8.43;;;-4.50;99.90;;;;;;5074574;28;20201;-77
2022/12/13 01:09:33;;;;;;;19.10;8.53;;;-4.50;99.90;;;;;;5074742;28;20285;-77
2022/12/13 01:12:04;;;;;;;21.67;10.73;;;-4.60;99.90;;;;;;5073248;28;20176;-75
2022/12/13 01:14:30;;;;;;;15.43;8.67;;;-4.60;99.90;;;;;;5073115;28;20202;-77
2022/12/13 01:16:56;;;;;;;16.43;9.17;;;-4.70;99.90;;;;;;5074405;28;20592;-77
2022/12/13 01:19:26;;;;;;;15.40;8.40;;;-4.70;99.90;;;;;;5074177;28;20262;-77
2022/12/13 01:22:00;;;;;;;16.30;8.90;;;-4.70;99.90;;;;;;5073184;28;20197;-77
2022/12/13 01:24:27;;;;;;;18.97;9.00;;;-4.70;99.90;;;;;;5074652;28;20190;-77
2022/12/13 01:26:53;;;;;;;14.87;8.53;;;-4.70;99.90;;;;;;5073059;28;20174;-77
2022/12/13 01:29:20;;;;;;;15.30;9.50;;;-4.70;99.90;;;;;;5072889;28;20227;-77
2022/12/13 01:31:46;;;;;;;19.30;9.20;;;-4.70;99.90;;;;;;5074507;28;20179;-77
2022/12/13 01:34:13;;;;;;;19.30;9.73;;;-4.70;99.90;;;;;;5074269;28;20209;-77
2022/12/13 01:36:41;;;;;;;18.63;9.43;;;-4.60;99.90;;;;;;5074476;28;20658;-77
2022/12/13 01:39:08;;;;;;;19.50;9.47;;;-4.70;99.90;;;;;;5074320;28;20170;-77
2022/12/13 01:41:34;;;;;;;19.33;10.23;;;-4.70;99.90;;;;;;5074778;28;20179;-77
2022/12/13 01:44:02;;;;;;;19.83;9.20;;;-4.70;99.90;;;;;;5074439;28;20728;-76
2022/12/13 01:46:30;;;;;;;20.33;9.47;;;-4.70;99.90;;;;;;5074647;28;20560;-77
2022/12/13 01:48:58;;;;;;;15.87;9.13;;;-4.80;99.90;;;;;;5073180;28;20615;-77
2022/12/13 01:51:46;;;;;;;16.50;9.57;;;-4.80;99.90;;;;;;5074005;28;20171;-77
2022/12/13 01:54:15;;;;;;;15.63;8.93;;;-4.80;99.90;;;;;;5072435;28;20271;-77
2022/12/13 01:56:50;;;;;;;14.97;9.03;;;-4.80;99.90;;;;;;5073202;28;20194;-77
2022/12/13 01:59:18;;;;;;;14.23;8.53;;;-4.80;99.90;;;;;;5073644;28;20167;-76
2022/12/13 02:01:44;;;;;;;18.30;9.77;;;-4.80;99.90;;;;;;5074721;28;20175;-76
2022/12/13 02:04:10;;;;;;;13.63;8.50;;;-4.70;99.90;;;;;;5072686;28;20198;-77
2022/12/13 02:06:41;;;;;;;21.13;9.43;;;-4.80;99.90;;;;;;5073914;28;20186;-77
2022/12/13 02:09:07;;;;;;;21.23;10.93;;;-4.80;99.90;;;;;;5073419;28;20199;-77
2022/12/13 02:11:36;;;;;;;21.30;10.60;;;-4.80;99.90;;;;;;5073527;28;20670;-77
2022/12/13 02:14:02;;;;;;;17.27;10.00;;;-4.90;99.90;;;;;;5072036;28;20232;-76
2022/12/13 02:16:59;;;;;;;21.03;9.93;;;-4.90;99.90;;;;;;5074049;28;20683;-77
2022/12/13 02:20:11;;;;;;;13.83;8.40;;;-4.90;99.90;;;;;;5072022;28;20167;-77
2022/12/13 02:22:59;;;;;;;16.50;8.43;;;-4.90;99.90;;;;;;5072191;28;20184;-77
2022/12/13 02:25:51;;;;;;;20.07;8.43;;;-5.00;99.90;;;;;;5073657;28;20567;-75
2022/12/13 02:28:37;;;;;;;17.63;8.50;;;-5.00;99.90;;;;;;5072181;28;20163;-77
2022/12/13 02:31:17;;;;;;;16.67;8.77;;;-5.10;99.90;;;;;;5071741;28;20590;-77
2022/12/13 02:33:59;;;;;;;19.13;9.33;;;-5.20;99.90;;;;;;5072723;28;20240;-77
2022/12/13 02:36:48;;;;;;;17.97;9.17;;;-5.20;99.90;;;;;;5071653;28;20182;-76
2022/12/13 02:39:20;;;;;;;17.10;10.07;;;-5.20;99.90;;;;;;5072975;28;20194;-76
2022/12/13 02:41:52;;;;;;;16.40;9.00;;;-5.30;99.90;;;;;;5072522;28;20696;-76
2022/12/13 02:44:26;;;;;;;16.07;9.13;;;-5.30;99.90;;;;;;5072386;28;20218;-76
2022/12/13 02:47:05;;;;;;;18.83;9.43;;;-5.40;99.90;;;;;;5071342;28;20527;-76
2022/12/13 02:49:35;;;;;;;17.03;9.47;;;-5.40;99.90;;;;;;5072520;28;20699;-76
2022/12/13 02:52:02;;;;;;;16.57;8.70;;;-5.30;99.90;;;;;;5072497;28;20164;-76
2022/12/13 02:54:29;;;;;;;19.90;9.83;;;-5.40;99.90;;;;;;5070998;28;20218;-76
2022/12/13 02:56:56;;;;;;;17.10;9.10;;;-5.50;99.90;;;;;;5072400;28;20659;-76
2022/12/13 02:59:26;;;;;;;16.37;8.83;;;-5.50;99.90;;;;;;5072444;28;20513;-77
2022/12/13 03:02:10;;;;;;;18.27;8.73;;;-5.50;99.90;;;;;;5071157;28;20579;-76
2022/12/13 03:08:27;;;;;;;17.83;8.43;;;-5.40;99.90;;;;;;5076716;28;20320;-76
2022/12/13 03:11:06;;;;;;;18.93;8.83;;;-5.40;99.90;;;;;;5076293;28;20626;-77
2022/12/13 03:13:51;;;;;;;19.30;9.20;;;-5.40;99.90;;;;;;5076739;28;20228;-77
2022/12/13 03:16:35;;;;;;;13.90;7.67;;;-5.40;99.90;;;;;;5075293;28;20592;-77
2022/12/13 03:19:03;;;;;;;17.10;8.97;;;-5.50;99.90;;;;;;5075193;28;20172;-77
2022/12/13 03:21:36;;;;;;;16.47;8.40;;;-5.50;99.90;;;;;;5076402;28;20183;-77
2022/12/13 03:24:01;;;;;;;12.73;8.03;;;-5.60;99.90;;;;;;5076481;28;20209;-77
2022/12/13 03:26:27;;;;;;;18.03;8.83;;;-5.60;99.90;;;;;;5076531;28;20170;-77
2022/12/13 03:28:53;;;;;;;16.37;8.33;;;-5.60;99.90;;;;;;5074990;28;20178;-77
2022/12/13 03:31:19;;;;;;;13.30;8.83;;;-5.50;99.90;;;;;;5076156;28;20304;-76
2022/12/13 03:33:45;;;;;;;17.93;9.43;;;-5.60;99.90;;;;;;5076072;28;20815;-75
2022/12/13 03:36:11;;;;;;;22.50;9.43;;;-5.60;99.90;;;;;;5074910;28;20700;-76
2022/12/13 03:38:37;;;;;;;21.33;9.27;;;-5.70;99.90;;;;;;5075951;28;20224;-76
2022/12/13 03:41:15;;;;;;;14.73;8.67;;;-5.70;99.90;;;;;;5075471;28;20240;-76
2022/12/13 03:43:41;;;;;;;22.37;9.00;;;-5.70;99.90;;;;;;5075653;28;20520;-77
2022/12/13 03:46:07;;;;;;;21.93;9.10;;;-5.70;99.90;;;;;;5075590;28;20252;-76
2022/12/13 03:48:33;;;;;;;17.93;8.93;;;-5.60;99.90;;;;;;5074141;28;20550;-76
2022/12/13 03:50:59;;;;;;;21.33;9.73;;;-5.70;99.90;;;;;;5075465;28;20182;-76
2022/12/13 03:53:25;;;;;;;20.93;8.93;;;-5.80;99.90;;;;;;5073994;28;20179;-76
2022/12/13 03:55:51;;;;;;;20.23;8.53;;;-5.80;99.90;;;;;;5075574;28;20233;-76
2022/12/13 03:58:17;;;;;;;16.70;9.13;;;-5.80;99.90;;;;;;5075194;28;20208;-76
2022/12/13 04:00:43;;;;;;;15.47;8.03;;;-5.80;99.90;;;;;;5073847;28;20719;-76
2022/12/13 04:03:08;;;;;;;16.33;9.43;;;-5.70;99.90;;;;;;5075280;28;20170;-75
2022/12/13 04:05:34;;;;;;;20.63;9.83;;;-5.80;99.90;;;;;;5073685;28;20195;-76
2022/12/13 04:08:00;;;;;;;17.63;9.00;;;-5.90;99.90;;;;;;5073756;28;20213;-76
2022/12/13 04:10:25;;;;;;;21.27;10.23;;;-5.90;99.90;;;;;;5073645;28;20189;-76
2022/12/13 04:15:35;;;;;;;12.53;7.77;;;-5.90;99.90;;;;;;5073929;28;20229;-76
2022/12/13 04:18:01;;;;;;;15.57;9.10;;;-5.80;99.90;;;;;;5073674;28;20179;-78
2022/12/13 04:20:26;;;;;;;21.90;9.83;;;-5.90;99.90;;;;;;5074472;28;20546;-75
2022/12/13 04:22:52;;;;;;;20.77;9.67;;;-5.80;99.90;;;;;;5074643;28;20174;-76
2022/12/13 04:25:18;;;;;;;17.77;9.43;;;-5.80;99.90;;;;;;5074715;28;20193;-78
2022/12/13 04:27:44;;;;;;;21.97;9.33;;;-5.80;99.90;;;;;;5074914;28;20170;-76
2022/12/13 04:30:10;;;;;;;16.53;9.00;;;-5.80;99.90;;;;;;5073279;28;20175;-74
2022/12/13 04:32:35;;;;;;;17.37;8.83;;;-5.80;99.90;;;;;;5074782;28;20174;-77
2022/12/13 04:35:01;;;;;;;19.70;9.40;;;-5.80;99.90;;;;;;5073147;28;20206;-76
2022/12/13 04:37:27;;;;;;;21.27;9.47;;;-5.80;99.90;;;;;;5074628;28;20167;-76
2022/12/13 04:39:52;;;;;;;20.33;8.93;;;-5.80;99.90;;;;;;5074637;28;20171;-76
2022/12/13 04:42:18;;;;;;;20.83;9.47;;;-5.80;99.90;;;;;;5073024;28;20221;-76
2022/12/13 04:44:43;;;;;;;19.47;8.70;;;-5.80;99.90;;;;;;5072901;28;20213;-76
2022/12/13 04:47:08;;;;;;;20.17;9.63;;;-5.80;99.90;;;;;;5072943;28;20175;-75
2022/12/13 04:49:34;;;;;;;17.53;8.07;;;-5.90;99.90;;;;;;5072854;28;20175;-76
2022/12/13 04:52:01;;;;;;;17.83;9.17;;;-6.00;99.90;;;;;;5074106;28;20671;-75
2022/12/13 04:54:27;;;;;;;17.77;8.83;;;-6.00;99.90;;;;;;5074202;28;20207;-77
2022/12/13 04:56:52;;;;;;;18.90;8.70;;;-6.00;99.90;;;;;;5073598;28;20177;-76
2022/12/13 04:59:18;;;;;;;16.77;9.17;;;-6.00;99.90;;;;;;5073976;28;20173;-76
2022/12/13 05:01:44;;;;;;;16.53;9.30;;;-6.10;99.90;;;;;;5072577;28;20181;-76
2022/12/13 05:04:09;;;;;;;19.73;9.00;;;-6.10;99.90;;;;;;5074001;28;20198;-76
2022/12/13 05:06:35;;;;;;;12.03;7.47;;;-6.10;99.90;;;;;;5074032;28;20182;-76
2022/12/13 05:09:00;;;;;;;17.10;9.03;;;-6.10;99.90;;;;;;5076045;28;20174;-76
2022/12/13 05:11:26;;;;;;;18.43;8.70;;;-6.10;99.90;;;;;;5074940;28;20178;-76
2022/12/13 05:13:52;;;;;;;16.53;8.47;;;-6.20;99.90;;;;;;5073883;28;20198;-76
2022/12/13 05:16:17;;;;;;;16.07;7.80;;;-6.20;99.90;;;;;;5072531;28;20171;-77
2022/12/13 05:18:43;;;;;;;23.80;10.03;;;-6.20;99.90;;;;;;5072834;28;20178;-76
2022/12/13 05:21:10;;;;;;;14.50;8.07;;;-6.20;99.90;;;;;;5073090;28;20175;-75
2022/12/13 05:23:37;;;;;;;15.53;8.10;;;-6.20;99.90;;;;;;5072147;28;20185;-77
2022/12/13 05:26:03;;;;;;;15.43;8.37;;;-6.20;99.90;;;;;;5073581;28;20178;-75
2022/12/13 05:28:29;;;;;;;16.07;8.53;;;-6.20;99.90;;;;;;5073483;28;20666;-78
2022/12/13 05:30:57;;;;;;;17.87;8.30;;;-6.10;99.90;;;;;;5073418;28;20178;-76
2022/12/13 05:33:24;;;;;;;16.83;9.17;;;-6.20;99.90;;;;;;5073091;28;20198;-74
2022/12/13 05:35:50;;;;;;;14.77;8.33;;;-6.10;99.90;;;;;;5073476;28;20734;-77
2022/12/13 05:38:15;;;;;;;15.37;7.83;;;-6.10;99.90;;;;;;5073307;28;20264;-75
2022/12/13 05:40:41;;;;;;;18.03;8.33;;;-6.10;99.90;;;;;;5071883;28;20204;-77
2022/12/13 05:43:10;;;;;;;18.43;9.67;;;-6.10;99.90;;;;;;5073420;28;20167;-75
2022/12/13 05:45:35;;;;;;;17.43;8.83;;;-6.10;99.90;;;;;;5072938;28;20604;-76
2022/12/13 05:48:01;;;;;;;16.57;8.57;;;-6.10;99.90;;;;;;5071746;28;20181;-75
2022/12/13 05:50:27;;;;;;;19.87;8.80;;;-6.20;99.90;;;;;;5071710;28;20232;-75
2022/12/13 05:52:52;;;;;;;16.60;8.93;;;-6.10;99.90;;;;;;5071724;28;20177;-75
2022/12/13 05:55:18;;;;;;;22.07;10.00;;;-6.10;99.90;;;;;;5071394;28;20213;-74
2022/12/13 05:57:43;;;;;;;18.30;9.43;;;-6.30;99.90;;;;;;5072847;28;20193;-75
2022/12/13 06:00:10;;;;;;;14.77;8.67;;;-6.20;99.90;;;;;;5072883;28;20652;-75
2022/12/13 06:02:40;;;;;;;20.07;8.73;;;-6.20;99.90;;;;;;5072700;28;20257;-75
2022/12/13 06:05:07;;;;;;;14.97;8.53;;;-6.20;99.90;;;;;;5072721;28;20226;-75
2022/12/13 06:07:33;;;;;;;15.13;8.57;;;-6.30;99.90;;;;;;5073004;28;20203;-75
2022/12/13 06:09:59;;;;;;;17.07;8.57;;;-6.30;99.90;;;;;;5071433;28;20269;-75
2022/12/13 06:12:24;;;;;;;15.27;8.23;;;-6.30;99.90;;;;;;5072600;28;20196;-75
2022/12/13 06:14:50;;;;;;;15.80;8.47;;;-6.30;99.90;;;;;;5072492;28;20207;-75
2022/12/13 06:17:15;;;;;;;15.63;8.93;;;-6.30;99.90;;;;;;5072620;28;20182;-74
2022/12/13 06:19:41;;;;;;;18.20;8.33;;;-6.40;99.90;;;;;;5072469;28;20579;-75
2022/12/13 06:22:06;;;;;;;18.33;8.97;;;-6.50;99.90;;;;;;5072791;28;20261;-76
2022/12/13 06:24:32;;;;;;;18.63;7.93;;;-6.50;99.90;;;;;;5071253;28;20234;-75
2022/12/13 06:26:59;;;;;;;17.27;9.83;;;-6.40;99.90;;;;;;5073017;28;20186;-75
2022/12/13 06:29:24;;;;;;;20.20;8.87;;;-6.40;99.90;;;;;;5072622;28;20171;-75
2022/12/13 06:31:56;;;;;;;17.97;9.13;;;-6.40;99.90;;;;;;5071349;28;20667;-75
2022/12/13 06:34:21;;;;;;;15.03;8.20;;;-6.50;99.90;;;;;;5072517;28;20206;-75
2022/12/13 06:36:47;;;;;;;18.70;9.03;;;-6.50;99.90;;;;;;5071352;28;20186;-75
2022/12/13 06:39:14;;;;;;;20.63;8.73;;;-6.60;99.90;;;;;;5075478;28;20178;-75
2022/12/13 06:41:40;;;;;;;12.73;7.63;;;-6.50;99.90;;;;;;5076934;28;20178;-75
2022/12/13 06:44:06;;;;;;;14.37;8.60;;;-6.50;99.90;;;;;;5076693;28;20195;-76
2022/12/13 06:46:32;;;;;;;14.77;8.47;;;-6.50;99.90;;;;;;5075400;28;20183;-75
2022/12/13 06:48:57;;;;;;;15.57;8.63;;;-6.50;99.90;;;;;;5075663;28;20247;-75
2022/12/13 06:51:23;;;;;;;17.17;8.13;;;-6.60;99.90;;;;;;5076451;28;20179;-76
2022/12/13 06:53:48;;;;;;;18.63;8.30;;;-6.60;99.90;;;;;;5076046;28;20225;-76
2022/12/13 06:56:14;;;;;;;17.10;8.90;;;-6.70;99.90;;;;;;5076466;28;20186;-76
2022/12/13 06:58:41;;;;;;;16.70;8.07;;;-6.60;99.90;;;;;;5076668;28;20174;-76
2022/12/13 07:01:12;;;;;;;17.43;9.33;;;-6.60;99.90;;;;;;5076446;28;20197;-76
2022/12/13 07:03:39;;;;;;;16.27;9.07;;;-6.60;99.90;;;;;;5075005;28;20171;-76
2022/12/13 07:06:12;;;;;;;16.77;9.17;;;-6.60;99.90;;;;;;5075041;28;20603;-76
2022/12/13 07:08:39;;;;;;;17.83;8.20;;;-6.70;99.90;;;;;;5075008;28;20171;-75
2022/12/13 07:11:05;;;;;;;19.40;8.63;;;-6.70;99.90;;;;;;5076387;28;20178;-76
2022/12/13 07:13:31;;;;;;;17.43;8.10;;;-6.70;99.90;;;;;;5076498;28;20171;-76
2022/12/13 07:15:57;;;;;;;13.33;7.50;;;-6.70;99.90;;;;;;5076005;28;20202;-76
2022/12/13 07:18:22;;;;;;;16.27;8.47;;;-6.60;99.90;;;;;;5075876;28;20686;-77
2022/12/13 07:20:48;;;;;;;16.73;8.27;;;-6.70;99.90;;;;;;5062201;28;20191;-76
2022/12/13 07:23:13;;;;;;;20.37;8.83;;;-6.70;99.90;;;;;;5054598;28;20664;-75
2022/12/13 07:25:40;;;;;;;18.80;8.60;;;-6.70;99.90;;;;;;5055852;28;20249;-76
2022/12/13 07:28:07;;;;;;;16.23;8.83;;;-6.80;99.90;;;;;;5054840;28;20567;-76
2022/12/13 07:30:35;;;;;;;18.40;10.27;;;-6.80;99.90;;;;;;5054610;28;20179;-76
2022/12/13 07:33:02;;;;;;;14.53;8.17;;;-6.90;99.90;;;;;;5055738;28;20184;-76
2022/12/13 07:35:28;;;;;;;15.43;8.50;;;-6.90;99.90;;;;;;5054369;28;20203;-76
2022/12/13 07:37:54;;;;;;;21.83;9.10;;;-6.90;99.90;;;;;;5055827;28;20175;-77
2022/12/13 07:40:19;;;;;;;16.40;8.30;;;-6.90;99.90;;;;;;5056485;28;20522;-77
2022/12/13 07:42:49;;;;;;;17.73;8.83;;;-6.80;99.90;;;;;;5056195;28;20187;-77
2022/12/13 07:45:15;;;;;;;19.97;9.53;;;-6.90;99.90;;;;;;5054604;28;20741;-76
2022/12/13 07:47:40;;;;;;;18.40;8.50;;;-6.90;99.90;;;;;;5056582;28;20265;-77
2022/12/13 07:50:06;;;;;;;17.20;8.33;;;-6.90;99.90;;;;;;5055161;28;20175;-76
2022/12/13 07:52:31;;;;;;;16.23;8.77;;;-6.90;99.90;;;;;;5054336;28;20175;-77
2022/12/13 07:54:57;;;;;;;15.20;8.63;;;-6.90;99.90;;;;;;5055545;28;20211;-77
2022/12/13 07:57:22;;;;;;;21.07;9.37;;;-6.90;99.90;;;;;;5055704;28;20181;-76
2022/12/13 07:59:48;;;;;;;15.23;8.07;;;-6.90;99.90;;;;;;5055378;28;20167;-77
2022/12/13 08:02:13;;;;;;;17.60;8.93;;;-6.80;99.90;;;;;;5055616;28;20258;-77
2022/12/13 08:04:41;;;;;;;18.97;8.73;;;-6.80;99.90;;;;;;5055345;28;20191;-77
2022/12/13 08:07:10;;;;;;;15.53;8.97;;;-6.80;99.90;;;;;;5054279;28;20198;-77
2022/12/13 08:09:36;;;;;;;15.53;8.43;;;-6.80;99.90;;;;;;5056329;28;20190;-76
2022/12/13 08:12:02;;;;;;;18.93;9.77;;;-6.70;99.90;;;;;;5057058;28;20213;-76
2022/12/13 08:14:27;;;;;;;15.63;8.47;;;-6.70;99.90;;;;;;5059261;28;20242;-76
2022/12/13 08:16:53;;;;;;;20.20;9.80;;;-6.60;99.90;;;;;;5063241;28;20203;-77
2022/12/13 08:19:18;;;;;;;19.93;10.10;;;-6.60;99.90;;;;;;5056602;28;20171;-77
2022/12/13 08:21:44;;;;;;;19.57;9.33;;;-6.60;99.90;;;;;;5055994;28;20172;-77
2022/12/13 08:24:10;;;;;;;29.10;10.00;;;-6.60;99.90;;;;;;5053606;28;20204;-77
2022/12/13 08:26:36;;;;;;;14.17;7.90;;;-6.50;99.90;;;;;;5055181;28;20183;-77
2022/12/13 08:29:02;;;;;;;19.83;8.90;;;-6.50;99.90;;;;;;5053532;28;20786;-77
2022/12/13 08:31:28;;;;;;;17.00;7.97;;;-6.60;99.90;;;;;;5054764;28;20203;-77
2022/12/13 08:33:53;;;;;;;21.30;9.17;;;-6.50;99.90;;;;;;5054837;28;20296;-76
2022/12/13 08:36:22;;;;;;;16.33;9.30;;;-6.50;99.90;;;;;;5054669;28;20202;-77
2022/12/13 08:38:53;;;;;;;16.67;8.57;;;-6.40;99.90;;;;;;5054865;28;20255;-77
2022/12/13 08:41:19;;;;;;;15.93;9.23;;;-6.40;99.90;;;;;;5054855;28;20164;-77
2022/12/13 08:43:45;;;;;;;14.70;8.03;;;-6.40;99.90;;;;;;5054381;28;20172;-77
2022/12/13 08:46:10;;;;;;;18.83;8.63;;;-6.30;99.90;;;;;;5053371;28;20561;-76
2022/12/13 08:48:36;;;;;;;19.00;10.13;;;-6.30;99.90;;;;;;5053260;28;20190;-77
2022/12/13 08:51:10;;;;;;;20.43;10.47;;;-6.30;99.90;;;;;;5053147;28;20643;-77
2022/12/13 08:53:36;;;;;;;20.50;9.87;;;-6.20;99.90;;;;;;5054420;28;20194;-77
2022/12/13 08:56:04;;;;;;;22.20;11.20;;;-6.20;99.90;;;;;;5053249;28;20175;-77
2022/12/13 08:58:30;;;;;;;17.67;8.07;;;-6.20;99.90;;;;;;5054254;28;20178;-77
2022/12/13 09:00:56;;;;;;;23.70;10.47;;;-6.10;99.90;;;;;;5053999;28;20174;-77
2022/12/13 09:03:23;;;;;;;17.87;8.63;;;-6.00;99.90;;;;;;5054128;28;20633;-77
2022/12/13 09:05:48;;;;;;;15.37;8.60;;;-6.00;99.90;;;;;;5054095;28;20194;-77
2022/12/13 09:08:14;;;;;;;17.17;9.27;;;-5.90;99.90;;;;;;5054167;28;20204;-76
2022/12/13 09:10:40;;;;;;;20.23;10.07;;;-5.90;99.90;;;;;;5054091;28;20183;-77
2022/12/13 09:13:05;;;;;;;20.10;9.50;;;-5.80;99.90;;;;;;5053254;28;20261;-77
2022/12/13 09:15:31;;;;;;;22.40;9.77;;;-5.70;99.90;;;;;;5053719;28;20689;-77
2022/12/13 09:17:57;;;;;;;18.27;8.40;;;-5.70;99.90;;;;;;5053959;28;20179;-77
2022/12/13 09:20:23;;;;;;;19.60;9.83;;;-5.60;99.90;;;;;;5052525;28;20189;-77
2022/12/13 09:22:49;;;;;;;15.47;8.60;;;-5.60;99.90;;;;;;5052632;28;20175;-77
2022/12/13 09:25:14;;;;;;;15.57;9.10;;;-5.50;99.90;;;;;;5053606;28;20233;-77
2022/12/13 09:27:40;;;;;;;18.20;9.30;;;-5.40;99.90;;;;;;5053927;28;20215;-77
2022/12/13 09:30:11;;;;;;;21.07;11.00;;;-5.40;99.90;;;;;;5052574;28;20190;-77
2022/12/13 09:32:37;;;;;;;20.93;9.83;;;-5.30;99.90;;;;;;5054391;28;20658;-77
2022/12/13 09:35:03;;;;;;;18.80;9.80;;;-5.20;99.90;;;;;;5052202;28;20284;-77
2022/12/13 09:37:29;;;;;;;17.77;9.63;;;-5.20;99.90;;;;;;5053914;28;20633;-77
2022/12/13 09:39:54;;;;;;;20.93;9.67;;;-5.10;99.90;;;;;;5053568;28;20167;-77
2022/12/13 09:42:26;;;;;;;20.40;10.10;;;-5.00;99.90;;;;;;5052313;28;20197;-77
2022/12/13 09:44:56;;;;;;;19.87;10.37;;;-5.00;99.90;;;;;;5053377;28;20192;-77
2022/12/13 09:47:33;;;;;;;23.80;11.97;;;-5.00;99.90;;;;;;5053206;28;20171;-78
2022/12/13 09:50:03;;;;;;;21.90;11.50;;;-4.90;99.90;;;;;;5053356;28;20167;-78
2022/12/13 09:52:43;;;;;;;24.63;11.03;;;-4.90;99.90;;;;;;5053450;28;20190;-76
2022/12/13 09:55:38;;;;;;;23.33;11.43;;;-4.80;99.90;;;;;;5054423;28;20700;-77
2022/12/13 09:58:27;;;;;;;15.37;8.43;;;-4.80;99.90;;;;;;5051542;28;20199;-77
2022/12/13 10:00:55;;;;;;;17.27;9.70;;;-4.80;99.90;;;;;;5052024;28;20636;-77
2022/12/13 10:03:22;;;;;;;20.23;10.33;;;-4.70;99.90;;;;;;5053468;28;20263;-77
2022/12/13 10:05:58;;;;;;;16.80;9.77;;;-4.60;99.90;;;;;;5051900;28;20196;-77
2022/12/13 10:08:29;;;;;;;20.30;11.17;;;-4.60;99.90;;;;;;5052160;28;20186;-77
2022/12/13 10:10:54;;;;;;;20.03;10.20;;;-4.50;99.90;;;;;;5053665;28;20199;-77
2022/12/13 10:13:20;;;;;;;31.00;12.33;;;-4.50;99.90;;;;;;5051982;28;20184;-77
2022/12/13 10:15:52;;;;;;;16.27;10.07;;;-4.40;99.90;;;;;;5051740;28;20207;-77
2022/12/13 10:18:30;;;;;;;23.50;10.67;;;-4.40;99.90;;;;;;5053214;28;20170;-77
2022/12/13 10:20:56;;;;;;;23.73;10.73;;;-4.30;99.90;;;;;;5051927;28;20742;-77
2022/12/13 10:23:21;;;;;;;20.80;10.93;;;-4.30;99.90;;;;;;5053155;28;20275;-78
2022/12/13 10:25:53;;;;;;;20.57;11.27;;;-4.20;99.90;;;;;;5052998;28;20637;-77
2022/12/13 10:28:32;;;;;;;23.10;11.07;;;-4.10;99.90;;;;;;5051881;28;20170;-78
2022/12/13 10:30:59;;;;;;;22.90;12.43;;;-4.10;99.90;;;;;;5053456;28;20636;-77
2022/12/13 10:33:29;;;;;;;22.17;12.27;;;-4.00;99.90;;;;;;5053544;28;20203;-78
2022/12/13 10:36:13;;;;;;;26.83;11.70;;;-4.00;99.90;;;;;;5052963;28;20196;-77
2022/12/13 10:38:44;;;;;;;24.93;12.80;;;-3.90;99.90;;;;;;5051607;28;20624;-77
2022/12/13 10:41:34;;;;;;;26.97;11.03;;;-3.80;99.90;;;;;;5052939;28;20160;-78
2022/12/13 10:44:11;;;;;;;23.40;12.27;;;-3.70;99.90;;;;;;5051309;28;20254;-77
2022/12/13 10:46:58;;;;;;;28.17;14.17;;;-3.60;99.90;;;;;;5051418;28;20186;-77
2022/12/13 10:49:28;;;;;;;20.37;11.77;;;-3.40;99.90;;;;;;5051373;28;20246;-77
2022/12/13 10:51:55;;;;;;;26.83;12.90;;;-3.40;99.90;;;;;;5051688;28;20187;-77
2022/12/13 10:54:28;;;;;;;25.07;12.93;;;-3.20;99.90;;;;;;5051055;28;20211;-77
2022/12/13 10:56:59;;;;;;;28.70;14.03;;;-3.10;99.90;;;;;;5051309;28;20657;-77
2022/12/13 10:59:29;;;;;;;25.40;12.07;;;-3.00;99.90;;;;;;5051352;28;20170;-77
2022/12/13 11:01:55;;;;;;;24.67;12.93;;;-3.00;99.90;;;;;;5051237;28;20160;-77
2022/12/13 11:04:24;;;;;;;21.47;11.70;;;-2.90;99.90;;;;;;5051181;28;20196;-77
2022/12/13 11:06:49;;;;;;;25.33;13.23;;;-2.80;99.90;;;;;;5051258;28;20227;-77
2022/12/13 11:09:22;;;;;;;29.50;13.77;;;-2.60;99.90;;;;;;5052697;28;20187;-77
2022/12/13 11:11:51;;;;;;;28.47;12.97;;;-2.50;99.90;;;;;;5051606;28;20246;-77
2022/12/13 11:14:19;;;;;;;27.07;13.57;;;-2.40;99.90;;;;;;5051243;28;20217;-78
2022/12/13 11:16:51;;;;;;;29.07;13.20;;;-2.20;99.90;;;;;;5051112;28;20176;-77
2022/12/13 11:19:44;;;;;;;24.77;12.30;;;-2.10;99.90;;;;;;5051249;28;20169;-78
2022/12/13 11:22:19;;;;;;;29.33;11.93;;;-2.00;99.90;;;;;;5054623;28;20161;-77
2022/12/13 11:24:50;;;;;;;27.47;13.30;;;-1.90;99.90;;;;;;5056147;28;20197;-77
2022/12/13 11:27:27;;;;;;;26.47;13.13;;;-1.80;99.90;;;;;;5057437;28;20536;-77
2022/12/13 11:29:59;;;;;;;27.03;12.70;;;-1.60;99.90;;;;;;5055964;28;20169;-77
2022/12/13 11:32:53;;;;;;;23.97;13.47;;;-1.60;99.90;;;;;;5056361;28;20165;-77
2022/12/13 11:35:53;;;;;;;25.70;14.20;;;-1.50;99.90;;;;;;5055780;28;20220;-77
2022/12/13 11:38:28;;;;;;;30.77;12.83;;;-1.40;99.90;;;;;;5054559;28;20160;-77
2022/12/13 11:41:19;;;;;;;23.80;12.23;;;-1.40;99.90;;;;;;5054643;28;20172;-77
2022/12/13 11:43:54;;;;;;;22.80;12.57;;;-1.30;99.90;;;;;;5054553;28;20310;-77
2022/12/13 11:46:40;;;;;;;23.70;12.47;;;-1.20;99.90;;;;;;5054446;28;20201;-77
2022/12/13 11:49:16;;;;;;;21.20;11.33;;;-1.10;99.90;;;;;;5054517;28;20192;-77
2022/12/13 11:51:49;;;;;;;19.90;10.60;;;-1.10;99.90;;;;;;5056015;28;20691;-77
2022/12/13 11:54:31;;;;;;;23.53;11.53;;;-1.00;99.90;;;;;;5055615;28;20222;-78
2022/12/13 11:57:03;;;;;;;24.83;11.60;;;-0.90;99.90;;;;;;5056975;28;20169;-77
2022/12/13 11:59:38;;;;;;;18.67;10.80;;;-0.80;99.90;;;;;;5055319;28;20159;-78
2022/12/13 12:02:24;;;;;;;18.93;9.97;;;-0.70;99.90;;;;;;5053689;28;20227;-77
2022/12/13 12:04:53;;;;;;;18.27;10.23;;;-0.60;99.90;;;;;;5052965;28;20227;-77
2022/12/13 12:07:29;;;;;;;22.70;10.40;;;-0.50;99.90;;;;;;5055371;28;20210;-77
2022/12/13 12:10:09;;;;;;;17.93;10.03;;;-0.40;99.90;;;;;;5054671;28;20166;-79
2022/12/13 12:12:36;;;;;;;15.17;9.27;;;-0.30;99.90;;;;;;5053913;28;20165;-78
2022/12/13 12:15:19;;;;;;;19.97;10.70;;;-0.30;99.90;;;;;;5054824;28;20213;-76
2022/12/13 12:17:44;;;;;;;19.07;9.30;;;-0.10;99.90;;;;;;5053629;28;20200;-78
2022/12/13 12:20:37;;;;;;;15.53;9.20;;;-0.10;99.90;;;;;;5055313;28;20260;-78
2022/12/13 12:23:31;;;;;;;15.53;8.70;;;0.00;99.90;;;;;;5054048;28;20166;-77
2022/12/13 12:26:14;;;;;;;17.63;9.00;;;0.10;99.90;;;;;;5036097;28;20698;-77
2022/12/13 12:28:42;;;;;;;20.53;8.40;;;0.10;99.90;;;;;;5053599;28;20165;-77
2022/12/13 12:31:13;;;;;;;17.43;9.13;;;0.20;99.90;;;;;;5055026;28;20174;-77
2022/12/13 12:33:49;;;;;;;16.53;8.93;;;0.30;99.90;;;;;;5054616;28;20217;-76
2022/12/13 12:36:39;;;;;;;14.20;8.30;;;0.40;99.90;;;;;;5054373;28;20202;-78
2022/12/13 12:39:32;;;;;;;18.30;9.17;;;0.50;99.90;;;;;;5053483;28;20254;-78
2022/12/13 12:42:41;;;;;;;15.67;7.73;;;0.60;99.90;;;;;;5054640;28;20220;-76
2022/12/13 12:45:27;;;;;;;16.27;8.20;;;0.60;99.90;;;;;;5033704;28;20768;-78
2022/12/13 12:48:25;;;;;;;13.67;7.27;;;0.70;99.90;;;;;;5054475;28;20178;-78
2022/12/13 12:51:01;;;;;;;15.33;7.57;;;0.70;99.90;;;;;;5053238;28;20182;-77
2022/12/13 12:53:50;;;;;;;13.87;7.20;;;0.70;99.90;;;;;;5054916;28;20248;-78
2022/12/13 12:56:47;;;;;;;12.47;7.33;;;0.80;99.90;;;;;;5054719;28;20251;-78